createdAt,value
2018-01-15T00:00:43.815Z,1012.10
2018-01-15T00:01:43.830Z,1012.12
2018-01-15T00:02:43.844Z,1012.04
2018-01-15T00:03:43.864Z,1012.03
2018-01-15T00:04:43.872Z,1012.01
2018-01-15T00:05:43.886Z,1012.03
2018-01-15T00:06:43.900Z,1012.02
2018-01-15T00:07:43.914Z,1012.01
2018-01-15T00:08:43.928Z,1011.99
2018-01-15T00:09:43.942Z,1011.94
2018-01-15T00:10:43.956Z,1011.98
2018-01-15T00:11:43.973Z,1011.95
2018-01-15T00:12:43.988Z,1011.88
2018-01-15T00:13:43.997Z,1011.84
2018-01-15T00:14:44.016Z,1011.86
2018-01-15T00:15:44.028Z,1011.76
2018-01-15T00:16:44.041Z,1011.75
2018-01-15T00:17:44.055Z,1011.75
2018-01-15T00:18:44.070Z,1011.77
2018-01-15T00:19:44.084Z,1011.79
2018-01-15T00:20:44.097Z,1011.82
2018-01-15T00:21:44.111Z,1011.78
2018-01-15T00:22:44.125Z,1011.80
2018-01-15T00:23:44.140Z,1011.78
2018-01-15T00:24:44.153Z,1011.72
2018-01-15T00:25:44.167Z,1011.72
2018-01-15T00:26:44.189Z,1011.70
2018-01-15T00:27:44.196Z,1011.70
2018-01-15T00:28:44.210Z,1011.62
2018-01-15T00:29:44.224Z,1011.60
2018-01-15T00:30:44.239Z,1011.62
2018-01-15T00:31:44.262Z,1011.66
2018-01-15T00:32:44.266Z,1011.61
2018-01-15T00:33:44.284Z,1011.54
2018-01-15T00:34:44.295Z,1011.55
2018-01-15T00:35:44.312Z,1011.53
2018-01-15T00:36:44.323Z,1011.48
2018-01-15T00:37:44.338Z,1011.48
2018-01-15T00:38:44.353Z,1011.48
2018-01-15T00:39:44.366Z,1011.41
2018-01-15T00:40:44.429Z,1011.42
2018-01-15T00:41:44.400Z,1011.38
2018-01-15T00:42:44.408Z,1011.43
2018-01-15T00:43:44.422Z,1011.38
2018-01-15T00:44:44.437Z,1011.38
2018-01-15T00:45:44.450Z,1011.36
2018-01-15T00:46:44.464Z,1011.38
2018-01-15T00:47:44.479Z,1011.35
2018-01-15T00:48:44.492Z,1011.35
2018-01-15T00:49:44.507Z,1011.34
2018-01-15T00:50:44.521Z,1011.34
2018-01-15T00:51:44.786Z,1011.27
2018-01-15T00:52:44.550Z,1011.32
2018-01-15T00:53:44.563Z,1011.25
2018-01-15T00:54:44.578Z,1011.29
2018-01-15T00:55:44.592Z,1011.24
2018-01-15T00:56:44.605Z,1011.25
2018-01-15T00:57:44.624Z,1011.24
2018-01-15T00:58:44.785Z,1011.30
2018-01-15T00:59:44.649Z,1011.34
2018-01-15T01:00:44.662Z,1011.32
2018-01-15T01:01:44.676Z,1011.26
2018-01-15T01:02:44.692Z,1011.29
2018-01-15T01:03:44.707Z,1011.26
2018-01-15T01:04:44.718Z,1011.30
2018-01-15T01:05:44.736Z,1011.29
2018-01-15T01:06:44.748Z,1011.27
2018-01-15T01:07:44.762Z,1011.24
2018-01-15T01:08:44.775Z,1011.19
2018-01-15T01:09:44.795Z,1011.20
2018-01-15T01:10:44.804Z,1011.22
2018-01-15T01:11:44.818Z,1011.18
2018-01-15T01:12:44.832Z,1011.18
2018-01-15T01:13:44.846Z,1011.17
2018-01-15T01:14:44.861Z,1011.15
2018-01-15T01:15:44.875Z,1011.18
2018-01-15T01:16:44.893Z,1011.20
2018-01-15T01:17:44.902Z,1011.20
2018-01-15T01:18:44.917Z,1011.23
2018-01-15T01:19:44.932Z,1011.14
2018-01-15T01:20:44.945Z,1011.09
2018-01-15T01:21:44.959Z,1011.06
2018-01-15T01:22:44.975Z,1011.06
2018-01-15T01:23:44.988Z,1011.04
2018-01-15T01:24:45.003Z,1011.00
2018-01-15T01:25:45.017Z,1010.99
2018-01-15T01:26:45.031Z,1010.93
2018-01-15T01:27:45.045Z,1010.89
2018-01-15T01:28:45.059Z,1010.91
2018-01-15T01:29:45.073Z,1010.87
2018-01-15T01:30:45.087Z,1010.83
2018-01-15T01:31:45.102Z,1010.84
2018-01-15T01:32:45.115Z,1010.82
2018-01-15T01:33:45.130Z,1010.81
2018-01-15T01:34:45.144Z,1010.80
2018-01-15T01:35:45.158Z,1010.85
2018-01-15T01:36:45.172Z,1010.86
2018-01-15T01:37:45.185Z,1010.86
2018-01-15T01:38:45.200Z,1010.88
2018-01-15T01:39:45.215Z,1010.89
2018-01-15T01:40:45.234Z,1010.87
2018-01-15T01:41:45.242Z,1010.85
2018-01-15T01:42:45.257Z,1010.84
2018-01-15T01:43:45.271Z,1010.83
2018-01-15T01:44:45.285Z,1010.84
2018-01-15T01:45:45.299Z,1010.83
2018-01-15T01:46:45.313Z,1010.77
2018-01-15T01:47:45.328Z,1010.77
2018-01-15T01:48:45.341Z,1010.71
2018-01-15T01:49:45.355Z,1010.72
2018-01-15T01:50:45.370Z,1010.73
2018-01-15T01:51:45.385Z,1010.71
2018-01-15T01:52:45.397Z,1010.76
2018-01-15T01:53:45.412Z,1010.74
2018-01-15T01:54:45.427Z,1010.73
2018-01-15T01:55:45.441Z,1010.72
2018-01-15T01:56:45.454Z,1010.69
2018-01-15T01:57:45.469Z,1010.71
2018-01-15T01:58:45.484Z,1010.61
2018-01-15T01:59:45.498Z,1010.62
2018-01-15T02:00:45.511Z,1010.62
2018-01-15T02:01:45.526Z,1010.57
2018-01-15T02:02:45.541Z,1010.52
2018-01-15T02:03:45.554Z,1010.53
2018-01-15T02:04:45.567Z,1010.46
2018-01-15T02:05:45.582Z,1010.46
2018-01-15T02:06:45.597Z,1010.45
2018-01-15T02:07:45.611Z,1010.44
2018-01-15T02:08:45.626Z,1010.40
2018-01-15T02:09:45.640Z,1010.40
2018-01-15T02:10:45.653Z,1010.40
2018-01-15T02:11:45.669Z,1010.41
2018-01-15T02:12:45.682Z,1010.39
2018-01-15T02:13:45.696Z,1010.36
2018-01-15T02:14:45.713Z,1010.36
2018-01-15T02:15:45.724Z,1010.31
2018-01-15T02:16:45.738Z,1010.32
2018-01-15T02:17:45.753Z,1010.29
2018-01-15T02:18:45.766Z,1010.28
2018-01-15T02:19:45.786Z,1010.27
2018-01-15T02:20:45.797Z,1010.26
2018-01-15T02:21:45.817Z,1010.27
2018-01-15T02:22:45.824Z,1010.27
2018-01-15T02:23:45.839Z,1010.19
2018-01-15T02:24:45.851Z,1010.21
2018-01-15T02:25:45.866Z,1010.25
2018-01-15T02:26:45.880Z,1010.22
2018-01-15T02:27:45.895Z,1010.19
2018-01-15T02:28:45.909Z,1010.19
2018-01-15T02:29:45.922Z,1010.20
2018-01-15T02:30:45.937Z,1010.19
2018-01-15T02:31:45.952Z,1010.17
2018-01-15T02:32:45.965Z,1010.15
2018-01-15T02:33:45.979Z,1010.17
2018-01-15T02:34:45.994Z,1010.16
2018-01-15T02:35:46.009Z,1010.10
2018-01-15T02:36:46.022Z,1010.11
2018-01-15T02:37:46.036Z,1010.10
2018-01-15T02:38:46.051Z,1010.08
2018-01-15T02:39:46.066Z,1010.02
2018-01-15T02:40:46.080Z,1010.05
2018-01-15T02:41:46.142Z,1010.02
2018-01-15T02:42:46.109Z,1010.00
2018-01-15T02:43:46.123Z,1009.98
2018-01-15T02:44:46.136Z,1009.99
2018-01-15T02:45:46.150Z,1009.99
2018-01-15T02:46:46.167Z,1010.00
2018-01-15T02:47:46.330Z,1009.98
2018-01-15T02:48:46.194Z,1010.01
2018-01-15T02:49:46.208Z,1009.99
2018-01-15T02:50:46.223Z,1009.94
2018-01-15T02:51:46.238Z,1009.93
2018-01-15T02:52:46.251Z,1009.94
2018-01-15T02:53:46.266Z,1009.93
2018-01-15T02:54:46.280Z,1009.89
2018-01-15T02:55:46.295Z,1009.92
2018-01-15T02:56:46.309Z,1009.88
2018-01-15T02:57:46.323Z,1009.87
2018-01-15T02:58:46.488Z,1009.87
2018-01-15T02:59:46.352Z,1009.86
2018-01-15T03:00:46.366Z,1009.84
2018-01-15T03:01:46.381Z,1009.84
2018-01-15T03:02:46.396Z,1009.84
2018-01-15T03:03:46.410Z,1009.79
2018-01-15T03:04:46.424Z,1009.79
2018-01-15T03:05:46.439Z,1009.75
2018-01-15T03:06:46.453Z,1009.77
2018-01-15T03:07:46.469Z,1009.73
2018-01-15T03:08:46.487Z,1009.71
2018-01-15T03:09:46.497Z,1009.72
2018-01-15T03:10:46.511Z,1009.68
2018-01-15T03:11:46.525Z,1009.66
2018-01-15T03:12:46.540Z,1009.59
2018-01-15T03:13:46.554Z,1009.57
2018-01-15T03:14:46.568Z,1009.52
2018-01-15T03:15:46.583Z,1009.50
2018-01-15T03:16:46.597Z,1009.50
2018-01-15T03:17:46.612Z,1009.48
2018-01-15T03:18:46.627Z,1009.47
2018-01-15T03:19:46.641Z,1009.46
2018-01-15T03:20:46.655Z,1009.41
2018-01-15T03:21:46.669Z,1009.39
2018-01-15T03:22:46.684Z,1009.38
2018-01-15T03:23:46.699Z,1009.38
2018-01-15T03:24:46.712Z,1009.33
2018-01-15T03:25:46.727Z,1009.35
2018-01-15T03:26:46.742Z,1009.28
2018-01-15T03:27:46.759Z,1009.29
2018-01-15T03:28:46.771Z,1009.25
2018-01-15T03:29:46.785Z,1009.22
2018-01-15T03:30:46.801Z,1009.23
2018-01-15T03:31:46.816Z,1009.19
2018-01-15T03:32:46.829Z,1009.23
2018-01-15T03:33:46.843Z,1009.19
2018-01-15T03:34:46.859Z,1009.17
2018-01-15T03:35:46.878Z,1009.18
2018-01-15T03:36:46.887Z,1009.15
2018-01-15T03:37:46.902Z,1009.17
2018-01-15T03:38:46.917Z,1009.16
2018-01-15T03:39:46.932Z,1009.12
2018-01-15T03:40:46.945Z,1009.08
2018-01-15T03:41:46.960Z,1009.02
2018-01-15T03:42:46.980Z,1008.98
2018-01-15T03:43:46.990Z,1008.97
2018-01-15T03:44:47.054Z,1008.95
2018-01-15T03:45:47.019Z,1008.93
2018-01-15T03:46:47.034Z,1008.94
2018-01-15T03:47:47.048Z,1008.94
2018-01-15T03:48:47.065Z,1008.95
2018-01-15T03:49:47.227Z,1008.98
2018-01-15T03:50:47.092Z,1008.94
2018-01-15T03:51:47.107Z,1009.00
2018-01-15T03:52:47.120Z,1008.97
2018-01-15T03:53:47.135Z,1008.95
2018-01-15T03:54:47.151Z,1008.86
2018-01-15T03:55:47.166Z,1008.84
2018-01-15T03:56:47.181Z,1008.82
2018-01-15T03:57:47.194Z,1008.75
2018-01-15T03:58:47.209Z,1008.75
2018-01-15T03:59:47.224Z,1008.76
2018-01-15T04:00:47.239Z,1008.70
2018-01-15T04:01:47.252Z,1008.68
2018-01-15T04:02:47.267Z,1008.63
2018-01-15T04:03:47.282Z,1008.64
2018-01-15T04:04:47.296Z,1008.61
2018-01-15T04:05:47.311Z,1008.63
2018-01-15T04:06:47.325Z,1008.53
2018-01-15T04:07:47.340Z,1008.48
2018-01-15T04:08:47.353Z,1008.42
2018-01-15T04:09:47.519Z,1008.39
2018-01-15T04:10:47.384Z,1008.35
2018-01-15T04:11:47.398Z,1008.30
2018-01-15T04:12:47.411Z,1008.32
2018-01-15T04:13:47.426Z,1008.30
2018-01-15T04:14:47.440Z,1008.33
2018-01-15T04:15:47.455Z,1008.35
2018-01-15T04:16:47.469Z,1008.33
2018-01-15T04:17:47.483Z,1008.32
2018-01-15T04:18:47.498Z,1008.28
2018-01-15T04:19:47.513Z,1008.31
2018-01-15T04:20:47.526Z,1008.32
2018-01-15T04:21:47.541Z,1008.25
2018-01-15T04:22:47.556Z,1008.27
2018-01-15T04:23:47.570Z,1008.25
2018-01-15T04:24:47.584Z,1008.20
2018-01-15T04:25:47.599Z,1008.19
2018-01-15T04:26:47.613Z,1008.12
2018-01-15T04:27:47.629Z,1008.13
2018-01-15T04:28:47.642Z,1008.12
2018-01-15T04:29:47.656Z,1008.09
2018-01-15T04:30:47.671Z,1008.13
2018-01-15T04:31:47.686Z,1008.05
2018-01-15T04:32:47.699Z,1008.06
2018-01-15T04:33:47.717Z,1008.07
2018-01-15T04:34:47.729Z,1008.04
2018-01-15T04:35:47.747Z,1008.00
2018-01-15T04:36:47.757Z,1007.99
2018-01-15T04:37:47.771Z,1007.95
2018-01-15T04:38:47.786Z,1007.95
2018-01-15T04:39:47.802Z,1007.95
2018-01-15T04:40:47.821Z,1007.88
2018-01-15T04:41:47.829Z,1007.92
2018-01-15T04:42:47.844Z,1007.94
2018-01-15T04:43:47.859Z,1007.90
2018-01-15T04:44:47.874Z,1007.89
2018-01-15T04:45:47.887Z,1007.87
2018-01-15T04:46:47.904Z,1007.81
2018-01-15T04:47:47.916Z,1007.86
2018-01-15T04:48:47.946Z,1007.86
2018-01-15T04:49:48.046Z,1007.84
2018-01-15T04:50:47.960Z,1007.84
2018-01-15T04:51:47.974Z,1007.81
2018-01-15T04:52:47.989Z,1007.80
2018-01-15T04:53:48.005Z,1007.79
2018-01-15T04:54:48.019Z,1007.74
2018-01-15T04:55:48.033Z,1007.73
2018-01-15T04:56:48.047Z,1007.73
2018-01-15T04:57:48.062Z,1007.71
2018-01-15T04:58:48.077Z,1007.67
2018-01-15T04:59:48.092Z,1007.63
2018-01-15T05:00:48.105Z,1007.62
2018-01-15T05:01:48.120Z,1007.63
2018-01-15T05:02:48.135Z,1007.62
2018-01-15T05:03:48.151Z,1007.60
2018-01-15T05:04:48.164Z,1007.58
2018-01-15T05:05:48.179Z,1007.63
2018-01-15T05:06:48.194Z,1007.61
2018-01-15T05:07:48.209Z,1007.53
2018-01-15T05:08:48.224Z,1007.56
2018-01-15T05:09:48.237Z,1007.56
2018-01-15T05:10:48.252Z,1007.51
2018-01-15T05:11:48.270Z,1007.52
2018-01-15T05:12:48.281Z,1007.50
2018-01-15T05:13:48.296Z,1007.49
2018-01-15T05:14:48.312Z,1007.45
2018-01-15T05:15:48.326Z,1007.47
2018-01-15T05:16:48.339Z,1007.48
2018-01-15T05:17:48.355Z,1007.45
2018-01-15T05:18:48.520Z,1007.43
2018-01-15T05:19:48.385Z,1007.39
2018-01-15T05:20:48.399Z,1007.45
2018-01-15T05:21:48.413Z,1007.39
2018-01-15T05:22:48.428Z,1007.33
2018-01-15T05:23:48.443Z,1007.30
2018-01-15T05:24:48.457Z,1007.26
2018-01-15T05:25:48.472Z,1007.23
2018-01-15T05:26:48.487Z,1007.25
2018-01-15T05:27:48.502Z,1007.22
2018-01-15T05:28:48.516Z,1007.24
2018-01-15T05:29:48.681Z,1007.20
2018-01-15T05:30:48.546Z,1007.15
2018-01-15T05:31:48.561Z,1007.15
2018-01-15T05:32:48.574Z,1007.15
2018-01-15T05:33:48.589Z,1007.15
2018-01-15T05:34:48.607Z,1007.17
2018-01-15T05:35:48.770Z,1007.14
2018-01-15T05:36:48.633Z,1007.12
2018-01-15T05:37:48.649Z,1007.08
2018-01-15T05:38:48.663Z,1007.07
2018-01-15T05:39:48.678Z,1007.03
2018-01-15T05:40:48.692Z,1007.06
2018-01-15T05:41:48.707Z,1006.99
2018-01-15T05:42:48.722Z,1007.06
2018-01-15T05:43:48.737Z,1007.04
2018-01-15T05:44:48.751Z,1006.99
2018-01-15T05:45:48.766Z,1007.02
2018-01-15T05:46:48.781Z,1006.97
2018-01-15T05:47:48.796Z,1006.98
2018-01-15T05:48:48.810Z,1006.96
2018-01-15T05:49:48.825Z,1006.89
2018-01-15T05:50:48.840Z,1006.96
2018-01-15T05:51:48.855Z,1006.91
2018-01-15T05:52:48.870Z,1006.87
2018-01-15T05:53:48.884Z,1006.86
2018-01-15T05:54:48.899Z,1006.89
2018-01-15T05:55:48.914Z,1006.85
2018-01-15T05:56:48.928Z,1006.85
2018-01-15T05:57:48.953Z,1006.84
2018-01-15T05:58:48.958Z,1006.83
2018-01-15T05:59:48.974Z,1006.83
2018-01-15T06:00:48.991Z,1006.79
2018-01-15T06:01:49.002Z,1006.77
2018-01-15T06:02:49.018Z,1006.74
2018-01-15T06:03:49.033Z,1006.73
2018-01-15T06:04:49.046Z,1006.73
2018-01-15T06:05:49.062Z,1006.72
2018-01-15T06:06:49.077Z,1006.70
2018-01-15T06:07:49.092Z,1006.68
2018-01-15T06:08:49.107Z,1006.67
2018-01-15T06:09:49.121Z,1006.75
2018-01-15T06:10:49.137Z,1006.74
2018-01-15T06:11:49.152Z,1006.60
2018-01-15T06:12:49.166Z,1006.65
2018-01-15T06:13:49.181Z,1006.61
2018-01-15T06:14:49.197Z,1006.66
2018-01-15T06:15:49.212Z,1006.63
2018-01-15T06:16:49.226Z,1006.61
2018-01-15T06:17:49.241Z,1006.58
2018-01-15T06:18:49.406Z,1006.55
2018-01-15T06:19:49.272Z,1006.55
2018-01-15T06:20:49.286Z,1006.50
2018-01-15T06:21:49.301Z,1006.52
2018-01-15T06:22:49.317Z,1006.48
2018-01-15T06:23:49.332Z,1006.46
2018-01-15T06:24:49.346Z,1006.45
2018-01-15T06:25:49.364Z,1006.43
2018-01-15T06:26:49.377Z,1006.44
2018-01-15T06:27:49.397Z,1006.41
2018-01-15T06:28:49.406Z,1006.42
2018-01-15T06:29:49.422Z,1006.38
2018-01-15T06:30:49.440Z,1006.38
2018-01-15T06:31:49.453Z,1006.37
2018-01-15T06:32:49.467Z,1006.32
2018-01-15T06:33:49.482Z,1006.36
2018-01-15T06:34:49.498Z,1006.39
2018-01-15T06:35:49.563Z,1006.35
2018-01-15T06:36:49.527Z,1006.32
2018-01-15T06:37:49.543Z,1006.30
2018-01-15T06:38:49.559Z,1006.27
2018-01-15T06:39:49.574Z,1006.27
2018-01-15T06:40:49.588Z,1006.23
2018-01-15T06:41:49.605Z,1006.17
2018-01-15T06:42:49.619Z,1006.17
2018-01-15T06:43:49.635Z,1006.17
2018-01-15T06:44:49.650Z,1006.14
2018-01-15T06:45:49.664Z,1006.15
2018-01-15T06:46:49.730Z,1006.17
2018-01-15T06:47:49.696Z,1006.14
2018-01-15T06:48:49.710Z,1006.09
2018-01-15T06:49:49.726Z,1006.07
2018-01-15T06:50:49.741Z,1006.08
2018-01-15T06:51:49.756Z,1006.06
2018-01-15T06:52:49.771Z,1006.07
2018-01-15T06:53:49.785Z,1005.99
2018-01-15T06:54:49.951Z,1006.05
2018-01-15T06:55:49.819Z,1006.05
2018-01-15T06:56:49.835Z,1006.01
2018-01-15T06:57:49.846Z,1006.05
2018-01-15T06:58:49.863Z,1006.01
2018-01-15T06:59:49.877Z,1006.01
2018-01-15T07:00:49.939Z,1005.99
2018-01-15T07:01:49.907Z,1005.94
2018-01-15T07:02:49.923Z,1005.98
2018-01-15T07:03:49.938Z,1005.96
2018-01-15T07:04:49.954Z,1005.99
2018-01-15T07:05:49.968Z,1005.94
2018-01-15T07:06:49.984Z,1005.88
2018-01-15T07:07:49.999Z,1005.89
2018-01-15T07:08:50.014Z,1005.87
2018-01-15T07:09:50.029Z,1005.89
2018-01-15T07:10:50.044Z,1005.78
2018-01-15T07:11:50.060Z,1005.77
2018-01-15T07:12:50.075Z,1005.68
2018-01-15T07:13:50.096Z,1005.72
2018-01-15T07:14:50.106Z,1005.72
2018-01-15T07:15:50.121Z,1005.73
2018-01-15T07:16:50.137Z,1005.69
2018-01-15T07:17:50.151Z,1005.69
2018-01-15T07:18:50.166Z,1005.65
2018-01-15T07:19:50.183Z,1005.63
2018-01-15T07:20:50.197Z,1005.63
2018-01-15T07:21:50.212Z,1005.59
2018-01-15T07:22:50.231Z,1005.61
2018-01-15T07:23:50.246Z,1005.65
2018-01-15T07:24:50.258Z,1005.62
2018-01-15T07:25:50.274Z,1005.61
2018-01-15T07:26:50.289Z,1005.65
2018-01-15T07:27:50.304Z,1005.61
2018-01-15T07:28:50.319Z,1005.60
2018-01-15T07:29:50.334Z,1005.64
2018-01-15T07:30:50.350Z,1005.55
2018-01-15T07:31:50.365Z,1005.56
2018-01-15T07:32:50.380Z,1005.60
2018-01-15T07:33:50.396Z,1005.62
2018-01-15T07:34:50.415Z,1005.57
2018-01-15T07:35:50.426Z,1005.54
2018-01-15T07:36:50.441Z,1005.57
2018-01-15T07:37:50.457Z,1005.49
2018-01-15T07:38:50.472Z,1005.45
2018-01-15T07:39:50.488Z,1005.45
2018-01-15T07:40:50.502Z,1005.37
2018-01-15T07:41:50.517Z,1005.42
2018-01-15T07:42:50.534Z,1005.37
2018-01-15T07:43:50.549Z,1005.38
2018-01-15T07:44:50.566Z,1005.35
2018-01-15T07:45:50.579Z,1005.36
2018-01-15T07:46:50.594Z,1005.39
2018-01-15T07:47:50.610Z,1005.38
2018-01-15T07:48:50.624Z,1005.36
2018-01-15T07:49:50.640Z,1005.34
2018-01-15T07:50:50.656Z,1005.30
2018-01-15T07:51:50.673Z,1005.22
2018-01-15T07:52:50.685Z,1005.26
2018-01-15T07:53:50.700Z,1005.25
2018-01-15T07:54:50.716Z,1005.20
2018-01-15T07:55:50.732Z,1005.22
2018-01-15T07:56:50.747Z,1005.18
2018-01-15T07:57:50.762Z,1005.18
2018-01-15T07:58:50.778Z,1005.17
2018-01-15T07:59:50.793Z,1005.16
2018-01-15T08:00:50.808Z,1005.17
2018-01-15T08:01:50.823Z,1005.13
2018-01-15T08:02:50.840Z,1005.19
2018-01-15T08:03:50.855Z,1005.09
2018-01-15T08:04:50.869Z,1005.13
2018-01-15T08:05:50.884Z,1005.16
2018-01-15T08:06:50.900Z,1005.11
2018-01-15T08:07:50.916Z,1005.06
2018-01-15T08:08:50.932Z,1005.06
2018-01-15T08:09:50.946Z,1004.96
2018-01-15T08:10:50.962Z,1004.92
2018-01-15T08:11:50.977Z,1004.96
2018-01-15T08:12:50.993Z,1004.86
2018-01-15T08:13:51.008Z,1004.88
2018-01-15T08:14:51.174Z,1004.90
2018-01-15T08:15:51.039Z,1004.86
2018-01-15T08:16:51.054Z,1004.89
2018-01-15T08:17:51.076Z,1004.85
2018-01-15T08:18:51.088Z,1004.83
2018-01-15T08:19:51.101Z,1004.85
2018-01-15T08:20:51.116Z,1004.84
2018-01-15T08:21:51.131Z,1004.82
2018-01-15T08:22:51.147Z,1004.75
2018-01-15T08:23:51.163Z,1004.72
2018-01-15T08:24:51.197Z,1004.71
2018-01-15T08:25:51.193Z,1004.62
2018-01-15T08:26:51.209Z,1004.62
2018-01-15T08:27:51.225Z,1004.62
2018-01-15T08:28:51.241Z,1004.66
2018-01-15T08:29:51.256Z,1004.63
2018-01-15T08:30:51.272Z,1004.54
2018-01-15T08:31:51.287Z,1004.59
2018-01-15T08:32:51.338Z,1004.56
2018-01-15T08:33:51.322Z,1004.56
2018-01-15T08:34:51.334Z,1004.52
2018-01-15T08:35:51.349Z,1004.56
2018-01-15T08:36:51.364Z,1004.54
2018-01-15T08:37:51.381Z,1004.52
2018-01-15T08:38:51.396Z,1004.55
2018-01-15T08:39:51.411Z,1004.54
2018-01-15T08:40:51.427Z,1004.50
2018-01-15T08:41:51.443Z,1004.52
2018-01-15T08:42:51.459Z,1004.53
2018-01-15T08:43:51.475Z,1004.53
2018-01-15T08:44:51.489Z,1004.55
2018-01-15T08:45:51.507Z,1004.56
2018-01-15T08:46:51.572Z,1004.56
2018-01-15T08:47:51.537Z,1004.55
2018-01-15T08:48:51.552Z,1004.49
2018-01-15T08:49:51.568Z,1004.48
2018-01-15T08:50:51.584Z,1004.49
2018-01-15T08:51:51.600Z,1004.45
2018-01-15T08:52:51.615Z,1004.44
2018-01-15T08:53:51.632Z,1004.43
2018-01-15T08:54:51.647Z,1004.39
2018-01-15T08:55:51.663Z,1004.37
2018-01-15T08:56:51.678Z,1004.37
2018-01-15T08:57:51.694Z,1004.27
2018-01-15T08:58:51.710Z,1004.29
2018-01-15T08:59:51.726Z,1004.24
2018-01-15T09:00:51.771Z,1004.18
2018-01-15T09:01:51.757Z,1004.16
2018-01-15T09:02:51.773Z,1004.21
2018-01-15T09:03:51.789Z,1004.10
2018-01-15T09:04:51.805Z,1004.14
2018-01-15T09:05:51.920Z,1004.11
2018-01-15T09:06:51.837Z,1004.07
2018-01-15T09:07:51.853Z,1004.07
2018-01-15T09:08:51.868Z,1004.07
2018-01-15T09:09:51.884Z,1004.05
2018-01-15T09:10:51.950Z,1004.00
2018-01-15T09:11:51.917Z,1003.98
2018-01-15T09:12:51.932Z,1003.98
2018-01-15T09:13:51.948Z,1003.92
2018-01-15T09:14:51.965Z,1003.92
2018-01-15T09:15:52.131Z,1003.93
2018-01-15T09:16:51.997Z,1003.95
2018-01-15T09:17:52.013Z,1003.91
2018-01-15T09:18:52.029Z,1003.90
2018-01-15T09:19:52.045Z,1003.97
2018-01-15T09:20:52.061Z,1003.89
2018-01-15T09:21:52.128Z,1003.92
2018-01-15T09:22:52.094Z,1003.87
2018-01-15T09:23:52.164Z,1003.90
2018-01-15T09:24:52.126Z,1003.87
2018-01-15T09:25:52.142Z,1003.85
2018-01-15T09:26:52.308Z,1003.90
2018-01-15T09:27:52.175Z,1003.82
2018-01-15T09:28:52.191Z,1003.85
2018-01-15T09:29:52.207Z,1003.80
2018-01-15T09:30:52.223Z,1003.81
2018-01-15T09:31:52.240Z,1003.82
2018-01-15T09:32:52.256Z,1003.75
2018-01-15T09:33:52.273Z,1003.75
2018-01-15T09:34:52.289Z,1003.76
2018-01-15T09:35:52.311Z,1003.69
2018-01-15T09:36:52.327Z,1003.71
2018-01-15T09:37:52.539Z,1003.68
2018-01-15T09:38:52.355Z,1003.64
2018-01-15T09:39:52.372Z,1003.63
2018-01-15T09:40:52.388Z,1003.68
2018-01-15T09:41:52.404Z,1003.61
2018-01-15T09:42:52.422Z,1003.61
2018-01-15T09:43:52.439Z,1003.56
2018-01-15T09:44:52.454Z,1003.54
2018-01-15T09:45:52.537Z,1003.52
2018-01-15T09:46:52.488Z,1003.48
2018-01-15T09:47:52.506Z,1003.50
2018-01-15T09:48:52.671Z,1003.43
2018-01-15T09:49:52.538Z,1003.38
2018-01-15T09:50:52.555Z,1003.37
2018-01-15T09:51:52.571Z,1003.36
2018-01-15T09:52:52.588Z,1003.38
2018-01-15T09:53:52.604Z,1003.38
2018-01-15T09:54:52.621Z,1003.32
2018-01-15T09:55:52.644Z,1003.31
2018-01-15T09:56:52.654Z,1003.32
2018-01-15T09:57:52.672Z,1003.28
2018-01-15T09:58:52.688Z,1003.35
2018-01-15T09:59:52.706Z,1003.28
2018-01-15T10:00:52.721Z,1003.27
2018-01-15T10:01:52.738Z,1003.26
2018-01-15T10:02:52.755Z,1003.27
2018-01-15T10:03:52.802Z,1003.27
2018-01-15T10:04:52.789Z,1003.27
2018-01-15T10:05:52.806Z,1003.25
2018-01-15T10:06:52.823Z,1003.20
2018-01-15T10:07:52.840Z,1003.24
2018-01-15T10:08:52.864Z,1003.25
2018-01-15T10:09:52.923Z,1003.28
2018-01-15T10:10:52.891Z,1003.23
2018-01-15T10:11:52.908Z,1003.19
2018-01-15T10:12:52.925Z,1003.22
2018-01-15T10:13:52.941Z,1003.18
2018-01-15T10:14:52.958Z,1003.19
2018-01-15T10:15:52.976Z,1003.18
2018-01-15T10:16:52.993Z,1003.10
2018-01-15T10:17:53.011Z,1003.03
2018-01-15T10:18:53.028Z,1003.07
2018-01-15T10:19:53.045Z,1003.04
2018-01-15T10:20:53.061Z,1003.01
2018-01-15T10:21:53.078Z,1002.99
2018-01-15T10:22:53.096Z,1002.98
2018-01-15T10:23:53.113Z,1002.96
2018-01-15T10:24:53.130Z,1002.93
2018-01-15T10:25:53.147Z,1002.91
2018-01-15T10:26:53.166Z,1002.89
2018-01-15T10:27:53.232Z,1002.90
2018-01-15T10:28:53.199Z,1002.86
2018-01-15T10:29:53.215Z,1002.87
2018-01-15T10:30:53.237Z,1002.85
2018-01-15T10:31:53.251Z,1002.84
2018-01-15T10:32:53.268Z,1002.77
2018-01-15T10:33:53.385Z,1002.81
2018-01-15T10:34:53.302Z,1002.78
2018-01-15T10:35:53.320Z,1002.69
2018-01-15T10:36:53.336Z,1002.76
2018-01-15T10:37:53.353Z,1002.68
2018-01-15T10:38:53.371Z,1002.66
2018-01-15T10:39:53.389Z,1002.64
2018-01-15T10:40:53.405Z,1002.65
2018-01-15T10:41:53.423Z,1002.58
2018-01-15T10:42:53.441Z,1002.57
2018-01-15T10:43:53.458Z,1002.54
2018-01-15T10:44:53.475Z,1002.52
2018-01-15T10:45:53.493Z,1002.40
2018-01-15T10:46:53.511Z,1002.41
2018-01-15T10:47:53.527Z,1002.38
2018-01-15T10:48:53.544Z,1002.30
2018-01-15T10:49:53.592Z,1002.28
2018-01-15T10:50:53.579Z,1002.30
2018-01-15T10:51:53.598Z,1002.26
2018-01-15T10:52:53.613Z,1002.22
2018-01-15T10:53:53.631Z,1002.20
2018-01-15T10:54:53.649Z,1002.15
2018-01-15T10:55:53.666Z,1002.13
2018-01-15T10:56:53.683Z,1002.08
2018-01-15T10:57:53.700Z,1002.04
2018-01-15T10:58:53.718Z,1002.01
2018-01-15T10:59:53.736Z,1002.00
2018-01-15T11:00:53.753Z,1002.03
2018-01-15T11:01:54.021Z,1001.95
2018-01-15T11:02:53.789Z,1001.94
2018-01-15T11:03:53.805Z,1001.86
2018-01-15T11:04:53.823Z,1001.83
2018-01-15T11:05:53.886Z,1001.82
2018-01-15T11:06:53.858Z,1001.71
2018-01-15T11:07:53.876Z,1001.78
2018-01-15T11:08:53.893Z,1001.67
2018-01-15T11:09:53.911Z,1001.67
2018-01-15T11:10:53.928Z,1001.62
2018-01-15T11:11:54.015Z,1001.58
2018-01-15T11:12:53.963Z,1001.58
2018-01-15T11:13:53.980Z,1001.54
2018-01-15T11:14:54.248Z,1001.48
2018-01-15T11:15:54.015Z,1001.43
2018-01-15T11:16:54.033Z,1001.40
2018-01-15T11:17:54.052Z,1001.38
2018-01-15T11:18:54.069Z,1001.39
2018-01-15T11:19:54.086Z,1001.36
2018-01-15T11:20:54.103Z,1001.35
2018-01-15T11:21:54.121Z,1001.33
2018-01-15T11:22:54.139Z,1001.31
2018-01-15T11:23:54.157Z,1001.27
2018-01-15T11:24:54.173Z,1001.26
2018-01-15T11:25:54.193Z,1001.17
2018-01-15T11:26:54.212Z,1001.12
2018-01-15T11:27:54.228Z,1001.12
2018-01-15T11:28:54.247Z,1001.08
2018-01-15T11:29:54.263Z,1001.08
2018-01-15T11:30:54.284Z,1001.04
2018-01-15T11:31:54.299Z,1001.04
2018-01-15T11:32:54.315Z,1000.99
2018-01-15T11:33:54.333Z,1000.93
2018-01-15T11:34:54.402Z,1000.86
2018-01-15T11:35:54.369Z,1000.89
2018-01-15T11:36:54.386Z,1000.79
2018-01-15T11:37:54.406Z,1000.81
2018-01-15T11:38:54.422Z,1000.72
2018-01-15T11:39:54.440Z,1000.76
2018-01-15T11:40:54.466Z,1000.67
2018-01-15T11:41:54.476Z,1000.62
2018-01-15T11:42:54.494Z,1000.61
2018-01-15T11:43:54.512Z,1000.52
2018-01-15T11:44:54.530Z,1000.52
2018-01-15T11:45:54.548Z,1000.47
2018-01-15T11:46:54.566Z,1000.49
2018-01-15T11:47:54.584Z,1000.46
2018-01-15T11:48:54.601Z,1000.41
2018-01-15T11:49:54.619Z,1000.29
2018-01-15T11:50:54.638Z,1000.30
2018-01-15T11:51:54.655Z,1000.15
2018-01-15T11:52:54.673Z,1000.20
2018-01-15T11:53:54.690Z,1000.18
2018-01-15T11:54:54.709Z,1000.06
2018-01-15T11:55:54.783Z,1000.12
2018-01-15T11:56:54.745Z,1000.10
2018-01-15T11:57:54.762Z,1000.01
2018-01-15T11:58:54.781Z,999.99
2018-01-15T11:59:54.799Z,1000.00
2018-01-15T12:00:54.816Z,999.99
2018-01-15T12:01:54.846Z,999.94
2018-01-15T12:02:54.854Z,999.90
2018-01-15T12:03:54.871Z,999.94
2018-01-15T12:04:54.888Z,999.90
2018-01-15T12:05:54.905Z,999.87
2018-01-15T12:06:54.924Z,999.86